Time;durP1;ratioP1;P1;durP2;ratioP2;P2;SDS_P1;SDS_P2;PMS_P1;PMS_P2;Temp;Humidity;BMP_temperature;BMP_pressure;BME280_temperature;BME280_humidity;BME280_pressure;Samples;Min_cycle;Max_cycle;Signal;HPM_P1;HPM_P2
2023/06/30 00:02:11;;;;;;;4.57;4.20;;;22.10;99.90;;;;;;5070144;28;20207;-78
2023/06/30 00:04:38;;;;;;;6.68;4.47;;;22.00;99.90;;;;;;5069688;28;20334;-79
2023/06/30 00:07:08;;;;;;;4.32;4.00;;;22.00;99.90;;;;;;5069476;28;20567;-78
2023/06/30 00:09:35;;;;;;;4.75;4.45;;;21.90;99.90;;;;;;5069601;28;20212;-78
2023/06/30 00:12:02;;;;;;;6.50;5.72;;;21.90;99.90;;;;;;5069254;28;20573;-78
2023/06/30 00:14:30;;;;;;;7.07;6.50;;;21.80;99.90;;;;;;5069071;28;20296;-78
2023/06/30 00:16:57;;;;;;;8.55;7.85;;;21.60;99.90;;;;;;5069082;28;20716;-78
2023/06/30 00:19:26;;;;;;;13.18;8.80;;;21.50;99.90;;;;;;5069293;28;20210;-80
2023/06/30 00:21:53;;;;;;;9.80;8.88;;;21.40;99.90;;;;;;5068960;28;20211;-79
2023/06/30 00:24:20;;;;;;;10.55;9.32;;;21.30;99.90;;;;;;5068698;28;20231;-79
2023/06/30 00:26:47;;;;;;;11.48;10.25;;;21.40;99.90;;;;;;5069436;28;20314;-80
2023/06/30 00:29:15;;;;;;;11.63;10.07;;;21.30;99.90;;;;;;5069302;28;20222;-79
2023/06/30 00:31:43;;;;;;;11.85;10.40;;;21.30;99.90;;;;;;5068900;28;20737;-80
2023/06/30 00:34:10;;;;;;;11.82;10.50;;;21.20;99.90;;;;;;5068864;28;20231;-78
2023/06/30 00:36:37;;;;;;;13.38;10.73;;;21.20;99.90;;;;;;5068583;28;20326;-78
2023/06/30 00:39:04;;;;;;;10.52;9.52;;;21.30;99.90;;;;;;5068906;28;20219;-78
2023/06/30 00:41:30;;;;;;;10.88;9.77;;;21.40;99.90;;;;;;5067956;28;20271;-78
2023/06/30 00:43:58;;;;;;;11.65;10.43;;;21.40;99.90;;;;;;5068541;28;20327;-78
2023/06/30 00:46:25;;;;;;;12.27;10.85;;;21.40;99.90;;;;;;5068031;28;21009;-80
2023/06/30 00:48:53;;;;;;;12.48;11.25;;;21.50;99.90;;;;;;5068104;28;20211;-85
2023/06/30 00:51:20;;;;;;;15.30;12.43;;;21.40;99.90;;;;;;5068379;28;20652;-79
2023/06/30 00:53:48;;;;;;;16.08;13.00;;;21.40;99.90;;;;;;5068475;28;20325;-80
2023/06/30 00:56:15;;;;;;;15.90;13.05;;;21.30;99.90;;;;;;5068409;28;20210;-79
2023/06/30 00:58:43;;;;;;;15.07;12.93;;;21.30;99.90;;;;;;5068116;28;20294;-80
2023/06/30 01:01:16;;;;;;;15.53;13.30;;;21.10;99.90;;;;;;5068007;28;20203;-80
2023/06/30 01:03:48;;;;;;;15.68;12.93;;;21.20;99.90;;;;;;5067670;28;20314;-80
2023/06/30 01:06:24;;;;;;;15.07;13.27;;;21.10;99.90;;;;;;5068361;28;20188;-79
2023/06/30 01:08:56;;;;;;;16.65;13.15;;;21.10;99.90;;;;;;5068581;28;20282;-79
2023/06/30 01:11:24;;;;;;;16.40;14.23;;;21.20;99.90;;;;;;5067954;28;20196;-79
2023/06/30 01:13:51;;;;;;;15.43;13.82;;;21.10;99.90;;;;;;5067757;28;20754;-80
2023/06/30 01:16:20;;;;;;;16.70;14.98;;;21.00;99.90;;;;;;5068171;28;20311;-80
2023/06/30 01:18:52;;;;;;;15.10;13.38;;;21.00;99.90;;;;;;5068562;28;20298;-80
2023/06/30 01:21:22;;;;;;;15.52;13.73;;;21.10;99.90;;;;;;5068306;28;20203;-81
2023/06/30 01:23:53;;;;;;;14.73;13.23;;;21.10;99.90;;;;;;5068278;28;20573;-81
2023/06/30 01:26:21;;;;;;;15.43;13.80;;;21.20;99.90;;;;;;5067863;28;20299;-79
2023/06/30 01:28:50;;;;;;;16.05;14.32;;;21.20;99.90;;;;;;5068426;28;20346;-80
2023/06/30 01:31:18;;;;;;;17.90;13.60;;;21.20;99.90;;;;;;5067466;28;20235;-82
2023/06/30 01:33:45;;;;;;;18.10;14.57;;;21.20;99.90;;;;;;5068276;28;20231;-81
2023/06/30 01:36:12;;;;;;;15.93;13.60;;;21.20;99.90;;;;;;5065605;28;20233;-80
2023/06/30 01:38:40;;;;;;;17.83;14.45;;;21.30;99.90;;;;;;5047861;28;20211;-81
2023/06/30 01:41:08;;;;;;;18.23;14.57;;;21.30;99.90;;;;;;5047413;28;20330;-80
2023/06/30 01:43:36;;;;;;;17.27;13.63;;;21.30;99.90;;;;;;5047189;28;20581;-80
2023/06/30 01:46:04;;;;;;;14.95;13.40;;;21.40;99.90;;;;;;5067375;28;20218;-80
2023/06/30 01:48:32;;;;;;;15.60;13.55;;;21.30;99.90;;;;;;5067848;28;20308;-81
2023/06/30 01:51:00;;;;;;;17.73;14.93;;;21.40;99.90;;;;;;5067012;28;21015;-80
2023/06/30 01:53:27;;;;;;;17.63;14.98;;;21.30;99.90;;;;;;5067397;28;20222;-81
2023/06/30 01:55:55;;;;;;;16.15;13.80;;;21.30;99.90;;;;;;5067322;28;20211;-81
2023/06/30 01:58:22;;;;;;;18.17;15.05;;;21.30;99.90;;;;;;5067252;28;20204;-78
2023/06/30 02:00:50;;;;;;;17.13;15.00;;;21.30;99.90;;;;;;5066654;28;20199;-77
2023/06/30 02:03:17;;;;;;;16.65;14.55;;;21.20;99.90;;;;;;5066548;28;20745;-78
2023/06/30 02:05:43;;;;;;;16.45;14.75;;;21.10;99.90;;;;;;5066714;28;20314;-78
2023/06/30 02:08:10;;;;;;;18.63;14.75;;;21.00;99.90;;;;;;5066842;28;20217;-78
2023/06/30 02:10:37;;;;;;;17.23;15.23;;;20.70;99.90;;;;;;5066410;28;20203;-78
2023/06/30 02:13:06;;;;;;;18.27;15.70;;;20.60;99.90;;;;;;5066701;28;20322;-78
2023/06/30 02:15:32;;;;;;;16.97;14.67;;;20.70;99.90;;;;;;5065435;28;20851;-78
2023/06/30 02:17:59;;;;;;;20.73;15.25;;;20.70;99.90;;;;;;5066619;28;20644;-78
2023/06/30 02:20:26;;;;;;;17.85;15.45;;;20.80;99.90;;;;;;5065994;28;20673;-79
2023/06/30 02:22:53;;;;;;;17.25;15.52;;;20.90;99.90;;;;;;5066265;28;20839;-77
2023/06/30 02:25:20;;;;;;;17.55;14.80;;;20.90;99.90;;;;;;5066565;28;20320;-78
2023/06/30 02:27:47;;;;;;;16.20;14.50;;;20.90;99.90;;;;;;5066794;28;20222;-78
2023/06/30 02:30:15;;;;;;;16.88;14.68;;;20.90;99.90;;;;;;5052458;28;20223;-78
2023/06/30 02:32:43;;;;;;;16.20;14.50;;;21.00;99.90;;;;;;5048505;28;20290;-78
2023/06/30 02:35:10;;;;;;;17.77;15.10;;;21.10;99.90;;;;;;5066572;28;20207;-78
2023/06/30 02:37:38;;;;;;;16.92;14.52;;;21.00;99.90;;;;;;5051984;28;20220;-78
2023/06/30 02:40:07;;;;;;;17.55;15.25;;;21.00;99.90;;;;;;5047219;28;20331;-78
2023/06/30 02:42:34;;;;;;;17.15;15.18;;;21.00;99.90;;;;;;5065209;28;20807;-78
2023/06/30 02:45:01;;;;;;;15.85;14.25;;;21.00;99.90;;;;;;5066174;28;20445;-78
2023/06/30 02:47:29;;;;;;;16.30;14.60;;;21.00;99.90;;;;;;5066245;28;20254;-79
2023/06/30 02:49:56;;;;;;;19.15;14.30;;;21.00;99.90;;;;;;5066023;28;20207;-78
2023/06/30 02:52:23;;;;;;;17.40;15.50;;;21.00;99.90;;;;;;5065944;28;20314;-78
2023/06/30 02:54:50;;;;;;;16.95;15.23;;;20.90;99.90;;;;;;5066284;28;20299;-78
2023/06/30 02:57:17;;;;;;;17.85;14.07;;;21.00;99.90;;;;;;5066013;28;20203;-79
2023/06/30 02:59:44;;;;;;;18.25;15.32;;;21.00;99.90;;;;;;5066259;28;20288;-79
2023/06/30 03:02:11;;;;;;;15.77;14.00;;;21.00;99.90;;;;;;5066131;28;20298;-80
2023/06/30 03:04:39;;;;;;;17.92;14.43;;;21.00;99.90;;;;;;5065676;28;20219;-79
2023/06/30 03:07:06;;;;;;;18.15;15.23;;;21.00;99.90;;;;;;5065726;28;20306;-78
2023/06/30 03:09:33;;;;;;;18.45;15.07;;;20.90;99.90;;;;;;5065255;28;20927;-78
2023/06/30 03:12:00;;;;;;;17.77;15.52;;;20.90;99.90;;;;;;5065917;28;20240;-79
2023/06/30 03:14:27;;;;;;;16.08;14.45;;;20.90;99.90;;;;;;5065880;28;20243;-78
2023/06/30 03:16:53;;;;;;;17.27;15.27;;;20.90;99.90;;;;;;5065245;28;20782;-79
2023/06/30 03:19:20;;;;;;;17.33;15.45;;;20.90;99.90;;;;;;5065938;28;20670;-79
2023/06/30 03:21:48;;;;;;;16.47;14.70;;;21.00;99.90;;;;;;5064168;28;20235;-78
2023/06/30 03:24:15;;;;;;;16.08;14.38;;;21.00;99.90;;;;;;5063701;28;20299;-79
2023/06/30 03:26:42;;;;;;;17.10;14.95;;;20.90;99.90;;;;;;5064092;28;20261;-79
2023/06/30 03:29:09;;;;;;;18.25;14.75;;;20.90;99.90;;;;;;5064356;28;20211;-79
2023/06/30 03:31:36;;;;;;;15.93;14.23;;;20.90;99.90;;;;;;5063686;28;20251;-79
2023/06/30 03:34:03;;;;;;;17.38;15.02;;;20.70;99.90;;;;;;5063694;28;20203;-79
2023/06/30 03:36:30;;;;;;;15.90;14.10;;;20.60;99.90;;;;;;5059504;28;20211;-80
2023/06/30 03:38:58;;;;;;;17.23;15.37;;;20.60;99.90;;;;;;5064190;28;20215;-79
2023/06/30 03:41:26;;;;;;;16.85;14.63;;;20.60;99.90;;;;;;5063574;28;20322;-78
2023/06/30 03:43:53;;;;;;;16.57;14.77;;;20.50;99.90;;;;;;5064125;28;20211;-79
2023/06/30 03:46:20;;;;;;;17.00;14.87;;;20.60;99.90;;;;;;5063515;28;20262;-79
2023/06/30 03:48:47;;;;;;;16.33;14.37;;;20.60;99.90;;;;;;5063694;28;20261;-78
2023/06/30 03:51:14;;;;;;;16.83;15.13;;;20.60;99.90;;;;;;5063190;28;20674;-78
2023/06/30 03:53:42;;;;;;;16.93;14.33;;;20.50;99.90;;;;;;5064064;28;20207;-78
2023/06/30 03:56:11;;;;;;;17.10;15.03;;;20.30;99.90;;;;;;5063952;28;20223;-78
2023/06/30 03:58:38;;;;;;;15.97;14.20;;;20.30;99.90;;;;;;5062737;28;20298;-80
2023/06/30 04:01:05;;;;;;;16.77;14.20;;;20.20;99.90;;;;;;5064485;28;20207;-78
2023/06/30 04:03:32;;;;;;;16.52;14.35;;;20.20;99.90;;;;;;5064475;28;20302;-79
2023/06/30 04:05:58;;;;;;;17.70;14.97;;;20.30;99.90;;;;;;5056306;28;20563;-78
2023/06/30 04:08:26;;;;;;;16.40;14.68;;;20.40;99.90;;;;;;5064288;28;20203;-79
2023/06/30 04:10:52;;;;;;;15.30;13.70;;;20.50;99.90;;;;;;5059639;28;20699;-79
2023/06/30 04:13:21;;;;;;;15.80;13.53;;;20.50;99.90;;;;;;5063581;28;20238;-79
2023/06/30 04:15:48;;;;;;;16.17;14.55;;;20.60;99.90;;;;;;5061899;28;20243;-79
2023/06/30 04:18:15;;;;;;;17.55;14.75;;;20.70;99.90;;;;;;5061601;28;20299;-79
2023/06/30 04:20:41;;;;;;;16.27;13.80;;;20.80;99.90;;;;;;5059048;28;20661;-79
2023/06/30 04:23:08;;;;;;;16.00;13.87;;;20.80;99.90;;;;;;5064884;28;20285;-80
2023/06/30 04:25:36;;;;;;;16.08;14.38;;;20.80;99.90;;;;;;5065021;28;20241;-78
2023/06/30 04:28:03;;;;;;;15.57;13.95;;;20.90;99.90;;;;;;5062767;28;20221;-78
2023/06/30 04:30:31;;;;;;;17.10;13.57;;;20.90;99.90;;;;;;5062282;28;20296;-78
2023/06/30 04:32:58;;;;;;;14.63;13.13;;;20.90;99.90;;;;;;5063239;28;20741;-78
2023/06/30 04:35:25;;;;;;;15.13;13.60;;;20.90;99.90;;;;;;5064652;28;20680;-78
2023/06/30 04:37:52;;;;;;;15.77;14.18;;;20.90;99.90;;;;;;5065080;28;20258;-78
2023/06/30 04:40:19;;;;;;;15.30;13.48;;;20.90;99.90;;;;;;5067797;28;20651;-79
2023/06/30 04:42:46;;;;;;;13.95;12.57;;;21.00;99.90;;;;;;5068319;28;20203;-78
2023/06/30 04:45:13;;;;;;;13.57;12.18;;;21.00;99.90;;;;;;5059273;28;20318;-78
2023/06/30 04:47:42;;;;;;;15.48;12.48;;;21.00;99.90;;;;;;5068092;28;20219;-78
2023/06/30 04:50:09;;;;;;;15.63;13.55;;;21.00;99.90;;;;;;5068135;28;20759;-79
2023/06/30 04:52:36;;;;;;;16.13;13.18;;;21.00;99.90;;;;;;5067145;28;20287;-78
2023/06/30 04:55:03;;;;;;;14.27;12.77;;;20.90;99.90;;;;;;5065547;28;20946;-78
2023/06/30 04:57:30;;;;;;;15.33;13.40;;;21.00;99.90;;;;;;5067899;28;20302;-78
2023/06/30 04:59:57;;;;;;;14.88;13.30;;;20.90;99.90;;;;;;5068017;28;20208;-78
2023/06/30 05:02:24;;;;;;;14.68;13.10;;;21.00;99.90;;;;;;5068050;28;20227;-78
2023/06/30 05:04:52;;;;;;;13.45;12.10;;;21.00;99.90;;;;;;5067954;28;20282;-78
2023/06/30 05:07:19;;;;;;;15.88;13.43;;;21.10;99.90;;;;;;5067825;28;20629;-78
2023/06/30 05:09:47;;;;;;;14.77;13.27;;;20.90;99.90;;;;;;5056635;28;20208;-78
2023/06/30 05:12:14;;;;;;;14.82;13.30;;;20.90;99.90;;;;;;5067843;28;20199;-79
2023/06/30 05:14:41;;;;;;;18.15;14.30;;;20.80;99.90;;;;;;5062270;28;20238;-78
2023/06/30 05:17:08;;;;;;;14.10;12.80;;;20.90;99.90;;;;;;5054195;28;20231;-78
2023/06/30 05:19:35;;;;;;;14.30;12.90;;;20.80;99.90;;;;;;5067866;28;20294;-78
2023/06/30 05:22:04;;;;;;;14.15;12.75;;;20.90;99.90;;;;;;5065167;28;20196;-78
2023/06/30 05:24:33;;;;;;;14.25;12.75;;;20.90;99.90;;;;;;5066360;28;20275;-78
2023/06/30 05:27:00;;;;;;;14.95;13.35;;;20.90;99.90;;;;;;5066895;28;20318;-78
2023/06/30 05:29:30;;;;;;;15.15;13.27;;;21.00;99.90;;;;;;5059191;28;20676;-78
2023/06/30 05:31:57;;;;;;;14.35;12.85;;;21.10;99.90;;;;;;5049476;28;20291;-79
2023/06/30 05:34:24;;;;;;;15.32;13.02;;;21.10;99.90;;;;;;5047565;28;20207;-78
2023/06/30 05:36:51;;;;;;;14.65;12.95;;;21.20;99.90;;;;;;5057236;28;20658;-79
2023/06/30 05:39:19;;;;;;;14.63;12.90;;;21.10;99.90;;;;;;5067067;28;20879;-77
2023/06/30 05:41:46;;;;;;;15.48;13.70;;;21.00;99.90;;;;;;5067450;28;20202;-78
2023/06/30 05:44:13;;;;;;;14.20;12.70;;;21.00;99.90;;;;;;5067249;28;20307;-78
2023/06/30 05:46:40;;;;;;;16.60;13.38;;;21.00;99.90;;;;;;5067484;28;20662;-78
2023/06/30 05:49:07;;;;;;;18.15;12.93;;;21.00;99.90;;;;;;5067349;28;20333;-78
2023/06/30 05:51:34;;;;;;;15.23;13.60;;;21.10;99.90;;;;;;5066855;28;20311;-78
2023/06/30 05:54:02;;;;;;;17.10;13.65;;;21.10;99.90;;;;;;5055654;28;20200;-79
2023/06/30 05:56:31;;;;;;;13.70;12.27;;;21.10;99.90;;;;;;5062533;28;20230;-78
2023/06/30 05:58:59;;;;;;;15.68;13.00;;;21.10;99.90;;;;;;5061937;28;20296;-78
2023/06/30 06:01:26;;;;;;;14.45;12.93;;;21.10;99.90;;;;;;5051823;28;20290;-78
2023/06/30 06:03:52;;;;;;;14.77;12.68;;;21.30;99.90;;;;;;5051848;28;20299;-78
2023/06/30 06:06:19;;;;;;;14.77;12.63;;;21.20;99.90;;;;;;5066249;28;20749;-78
2023/06/30 06:08:47;;;;;;;13.80;12.27;;;21.20;99.90;;;;;;5066655;28;20419;-78
2023/06/30 06:11:15;;;;;;;14.70;12.35;;;21.10;99.90;;;;;;5063850;28;20204;-78
2023/06/30 06:13:43;;;;;;;16.98;13.55;;;21.20;99.90;;;;;;5066369;28;20658;-79
2023/06/30 06:16:10;;;;;;;15.55;13.77;;;21.20;99.90;;;;;;5058273;28;20200;-78
2023/06/30 06:18:37;;;;;;;14.18;12.65;;;21.30;99.90;;;;;;5066664;28;20310;-78
2023/06/30 06:21:04;;;;;;;14.88;13.43;;;21.40;99.90;;;;;;5056807;28;20280;-79
2023/06/30 06:23:31;;;;;;;14.03;12.33;;;21.30;99.90;;;;;;5062561;28;20995;-78
2023/06/30 06:25:58;;;;;;;13.73;12.23;;;21.30;99.90;;;;;;5065803;28;20992;-78
2023/06/30 06:28:25;;;;;;;13.45;12.05;;;21.40;99.90;;;;;;5058914;28;20881;-78
2023/06/30 06:30:53;;;;;;;15.93;12.10;;;21.50;99.90;;;;;;5065446;28;20200;-78
2023/06/30 06:33:20;;;;;;;13.25;11.95;;;21.60;99.90;;;;;;5055870;28;20713;-78
2023/06/30 06:35:49;;;;;;;14.70;12.05;;;21.40;99.90;;;;;;5066410;28;20306;-78
2023/06/30 06:38:17;;;;;;;13.60;12.20;;;21.30;99.90;;;;;;5065620;28;20647;-78
2023/06/30 06:40:44;;;;;;;14.40;12.15;;;21.20;99.90;;;;;;5053935;28;20234;-78
2023/06/30 06:43:11;;;;;;;14.00;12.60;;;21.20;99.90;;;;;;5066370;28;20615;-78
2023/06/30 06:45:38;;;;;;;13.37;12.00;;;21.10;99.90;;;;;;5065440;28;20231;-78
2023/06/30 06:48:23;;;;;;;15.20;12.37;;;21.10;99.90;;;;;;5061116;28;20319;-78
2023/06/30 06:50:53;;;;;;;14.43;12.37;;;21.10;99.90;;;;;;5065752;28;20200;-79
2023/06/30 06:53:21;;;;;;;14.23;12.73;;;21.20;99.90;;;;;;5066012;28;20290;-78
2023/06/30 06:55:52;;;;;;;15.02;12.75;;;21.30;99.90;;;;;;5064955;28;20273;-78
2023/06/30 06:58:19;;;;;;;16.40;12.77;;;21.30;99.90;;;;;;5053830;28;20278;-78
2023/06/30 07:00:47;;;;;;;17.45;12.65;;;21.30;99.90;;;;;;5065571;28;20658;-78
2023/06/30 07:03:14;;;;;;;13.90;12.50;;;21.40;99.90;;;;;;5065195;28;20693;-78
2023/06/30 07:05:45;;;;;;;14.27;12.88;;;21.40;99.90;;;;;;5061885;28;20219;-78
2023/06/30 07:08:12;;;;;;;13.33;11.93;;;21.50;99.90;;;;;;5060463;28;20550;-78
2023/06/30 07:10:39;;;;;;;14.60;12.73;;;21.50;99.90;;;;;;5052064;28;20295;-78
2023/06/30 07:13:06;;;;;;;17.55;13.65;;;21.50;99.90;;;;;;5065815;28;20237;-78
2023/06/30 07:15:34;;;;;;;14.68;13.18;;;21.50;99.90;;;;;;5063866;28;20297;-78
2023/06/30 07:18:01;;;;;;;17.13;12.85;;;21.50;99.90;;;;;;5055809;28;20743;-78
2023/06/30 07:20:28;;;;;;;14.85;13.20;;;21.50;99.90;;;;;;5058990;28;20231;-78
2023/06/30 07:22:57;;;;;;;14.55;12.57;;;21.50;99.90;;;;;;5064890;28;20655;-78
2023/06/30 07:25:25;;;;;;;12.82;11.57;;;21.60;99.90;;;;;;5063504;28;20325;-78
2023/06/30 07:27:54;;;;;;;14.98;13.38;;;21.60;99.90;;;;;;5055014;28;20210;-78
2023/06/30 07:30:21;;;;;;;15.88;13.77;;;21.70;99.90;;;;;;5061043;28;20203;-78
2023/06/30 07:32:49;;;;;;;22.65;13.32;;;21.70;99.90;;;;;;5062470;28;20204;-78
2023/06/30 07:35:16;;;;;;;15.43;12.90;;;21.70;99.90;;;;;;5065510;28;20218;-78
2023/06/30 07:37:43;;;;;;;14.48;12.85;;;21.80;99.90;;;;;;5054615;28;20207;-78
2023/06/30 07:40:12;;;;;;;14.98;13.25;;;21.90;99.90;;;;;;5059976;28;20860;-78
2023/06/30 07:42:39;;;;;;;16.85;13.25;;;22.00;99.90;;;;;;5059741;28;20204;-78
2023/06/30 07:45:09;;;;;;;16.77;13.65;;;22.00;99.90;;;;;;5065317;28;20219;-78
2023/06/30 07:47:36;;;;;;;15.93;14.23;;;22.00;99.90;;;;;;5063150;28;20269;-78
2023/06/30 07:50:03;;;;;;;18.13;13.68;;;22.00;99.90;;;;;;5057041;28;20231;-78
2023/06/30 07:52:30;;;;;;;16.45;13.88;;;22.00;99.90;;;;;;5064727;28;20732;-78
2023/06/30 07:54:57;;;;;;;17.52;13.18;;;21.80;99.90;;;;;;5065201;28;20677;-78
2023/06/30 07:57:27;;;;;;;17.83;14.27;;;21.70;99.90;;;;;;5064856;28;20312;-79
2023/06/30 07:59:54;;;;;;;17.13;13.68;;;21.70;99.90;;;;;;5063376;28;20216;-78
2023/06/30 08:02:21;;;;;;;15.07;13.63;;;21.80;99.90;;;;;;5059606;28;20655;-78
2023/06/30 08:04:48;;;;;;;17.60;14.18;;;21.80;99.90;;;;;;5065031;28;20646;-78
2023/06/30 08:07:15;;;;;;;15.52;13.77;;;21.90;99.90;;;;;;5062980;28;20223;-78
2023/06/30 08:09:41;;;;;;;19.02;14.18;;;22.00;99.90;;;;;;5054513;28;20313;-78
2023/06/30 08:12:10;;;;;;;20.73;14.65;;;22.20;99.90;;;;;;5063039;28;20192;-78
2023/06/30 08:14:38;;;;;;;19.08;14.85;;;22.30;99.90;;;;;;5067707;28;20280;-78
2023/06/30 08:17:05;;;;;;;16.88;15.00;;;22.30;99.90;;;;;;5068651;28;20702;-78
2023/06/30 08:19:32;;;;;;;20.85;15.20;;;22.40;99.90;;;;;;5065855;28;20223;-78
2023/06/30 08:22:01;;;;;;;16.48;13.77;;;22.50;99.90;;;;;;5067966;28;20261;-77
2023/06/30 08:24:28;;;;;;;18.45;14.43;;;22.60;99.90;;;;;;5065715;28;20199;-78
2023/06/30 08:26:55;;;;;;;17.52;15.57;;;22.70;99.90;;;;;;5068247;28;20314;-78
2023/06/30 08:29:21;;;;;;;16.13;14.07;;;22.60;99.90;;;;;;5058872;28;20230;-78
2023/06/30 08:31:50;;;;;;;17.30;15.50;;;22.60;99.90;;;;;;5055786;28;20320;-78
2023/06/30 08:34:16;;;;;;;16.67;14.70;;;22.60;99.90;;;;;;5065272;28;20239;-78
2023/06/30 08:36:43;;;;;;;18.92;15.50;;;22.50;99.90;;;;;;5068390;28;20235;-78
2023/06/30 08:39:12;;;;;;;21.20;16.30;;;22.60;99.90;;;;;;5061432;28;20232;-78
2023/06/30 08:41:39;;;;;;;17.55;15.65;;;22.40;99.90;;;;;;5062304;28;20200;-78
2023/06/30 08:44:06;;;;;;;18.73;16.67;;;22.40;99.90;;;;;;5068358;28;20210;-78
2023/06/30 08:46:34;;;;;;;23.00;16.25;;;22.20;99.90;;;;;;5065584;28;20326;-77
2023/06/30 08:49:03;;;;;;;18.67;16.27;;;22.20;99.90;;;;;;5048468;28;20208;-79
2023/06/30 08:51:30;;;;;;;21.20;17.38;;;22.20;99.90;;;;;;5059701;28;20288;-78
2023/06/30 08:54:00;;;;;;;18.95;16.80;;;22.20;99.90;;;;;;5068285;28;20297;-78
2023/06/30 08:56:28;;;;;;;21.88;18.13;;;22.30;99.90;;;;;;5067381;28;20239;-78
2023/06/30 08:58:55;;;;;;;25.17;19.95;;;22.30;99.90;;;;;;5066483;28;20207;-78
2023/06/30 09:01:23;;;;;;;23.80;19.10;;;22.10;99.90;;;;;;5068375;28;20697;-78
2023/06/30 09:03:50;;;;;;;22.50;19.58;;;22.00;99.90;;;;;;5067996;28;20218;-78
2023/06/30 09:06:19;;;;;;;23.63;19.55;;;21.90;99.90;;;;;;5067690;28;20234;-78
2023/06/30 09:08:52;;;;;;;24.90;19.88;;;21.70;99.90;;;;;;5066906;28;20283;-78
2023/06/30 09:11:23;;;;;;;25.52;19.90;;;21.60;99.90;;;;;;5056294;28;20246;-77
2023/06/30 09:13:52;;;;;;;23.70;21.10;;;21.50;99.90;;;;;;5066933;28;20222;-78
2023/06/30 09:16:19;;;;;;;25.65;20.17;;;21.50;99.90;;;;;;5067700;28;20594;-78
2023/06/30 09:18:47;;;;;;;26.38;20.88;;;21.60;99.90;;;;;;5068108;28;20306;-78
2023/06/30 09:21:14;;;;;;;30.00;21.30;;;21.60;99.90;;;;;;5067619;28;20203;-78
2023/06/30 09:23:43;;;;;;;27.65;22.08;;;21.70;99.90;;;;;;5068051;28;20298;-78
2023/06/30 09:26:14;;;;;;;27.88;20.92;;;21.50;99.90;;;;;;5066889;28;20217;-78
2023/06/30 09:28:42;;;;;;;30.60;23.58;;;21.20;99.90;;;;;;5067840;28;20218;-78
2023/06/30 09:31:08;;;;;;;32.90;25.97;;;20.90;99.90;;;;;;5067468;28;20215;-78
2023/06/30 09:33:36;;;;;;;32.43;25.40;;;20.90;99.90;;;;;;5067501;28;20207;-78
2023/06/30 09:36:04;;;;;;;29.97;23.70;;;20.80;99.90;;;;;;5067148;28;20204;-78
2023/06/30 09:38:31;;;;;;;32.67;26.00;;;20.50;99.90;;;;;;5067171;28;21105;-78
2023/06/30 09:41:00;;;;;;;31.60;26.23;;;20.40;99.90;;;;;;5066942;28;20246;-78
2023/06/30 09:43:27;;;;;;;30.83;25.47;;;20.50;99.90;;;;;;5067132;28;20311;-78
2023/06/30 09:45:55;;;;;;;30.90;24.70;;;20.50;99.90;;;;;;5067305;28;20300;-78
2023/06/30 09:48:23;;;;;;;29.03;23.70;;;20.50;99.90;;;;;;5066539;28;20249;-78
2023/06/30 09:50:53;;;;;;;29.70;24.27;;;20.70;99.90;;;;;;5066666;28;20223;-78
2023/06/30 09:53:20;;;;;;;29.00;23.73;;;20.80;99.90;;;;;;5067127;28;20211;-78
2023/06/30 09:55:49;;;;;;;26.67;22.67;;;21.00;99.90;;;;;;5067519;28;20298;-78
2023/06/30 09:58:18;;;;;;;26.10;21.37;;;21.20;99.90;;;;;;5066746;28;20784;-78
2023/06/30 10:00:46;;;;;;;22.40;19.05;;;21.40;99.90;;;;;;5067412;28;20689;-78
2023/06/30 10:03:16;;;;;;;25.05;20.60;;;21.40;99.90;;;;;;5067016;28;20204;-78
2023/06/30 10:05:44;;;;;;;22.77;18.92;;;21.30;99.90;;;;;;5067064;28;20218;-78
2023/06/30 10:08:12;;;;;;;24.13;19.73;;;21.50;99.90;;;;;;5067072;28;20242;-78
2023/06/30 10:10:41;;;;;;;20.63;18.40;;;21.60;99.90;;;;;;5066642;28;20254;-77
2023/06/30 10:13:08;;;;;;;20.13;18.02;;;21.60;99.90;;;;;;5066743;28;20209;-78
2023/06/30 10:15:37;;;;;;;21.38;18.52;;;21.70;99.90;;;;;;5066500;28;20678;-77
2023/06/30 10:18:05;;;;;;;21.25;17.67;;;21.70;99.90;;;;;;5066467;28;20203;-78
2023/06/30 10:20:32;;;;;;;19.30;17.05;;;21.70;99.90;;;;;;5066112;28;20688;-78
2023/06/30 10:23:01;;;;;;;20.60;17.70;;;21.70;99.90;;;;;;5066692;28;20625;-78
2023/06/30 10:25:30;;;;;;;19.38;17.33;;;21.70;99.90;;;;;;5066261;28;20298;-78
2023/06/30 10:27:58;;;;;;;21.25;18.17;;;21.50;99.90;;;;;;5066573;28;20246;-80
2023/06/30 10:30:25;;;;;;;20.95;17.23;;;21.40;99.90;;;;;;5065157;28;20235;-78
2023/06/30 10:32:53;;;;;;;27.23;17.25;;;21.40;99.90;;;;;;5066241;28;20272;-78
2023/06/30 10:35:22;;;;;;;20.27;16.95;;;21.30;99.90;;;;;;5066018;28;20292;-78
2023/06/30 10:37:49;;;;;;;19.58;16.52;;;21.30;99.90;;;;;;5065256;28;20207;-78
2023/06/30 10:40:26;;;;;;;18.95;16.92;;;21.30;99.90;;;;;;5065727;28;20372;-77
2023/06/30 10:42:55;;;;;;;18.07;15.73;;;21.30;99.90;;;;;;5066176;28;20213;-78
2023/06/30 10:45:27;;;;;;;18.70;16.35;;;21.30;99.90;;;;;;5066368;28;21172;-79
2023/06/30 10:47:55;;;;;;;18.80;16.83;;;21.30;99.90;;;;;;5062876;28;20352;-78
2023/06/30 10:50:23;;;;;;;18.70;15.75;;;21.30;99.90;;;;;;5062974;28;20239;-78
2023/06/30 10:52:51;;;;;;;19.50;16.60;;;21.40;99.90;;;;;;5065006;28;20590;-78
2023/06/30 10:55:21;;;;;;;20.35;16.50;;;21.40;99.90;;;;;;5065920;28;20242;-78
2023/06/30 10:57:53;;;;;;;18.85;15.85;;;21.40;99.90;;;;;;5065713;28;20206;-78
2023/06/30 11:00:24;;;;;;;21.15;18.65;;;21.30;99.90;;;;;;5065969;28;20314;-78
2023/06/30 11:02:57;;;;;;;21.27;18.05;;;21.30;99.90;;;;;;5065783;28;20203;-78
2023/06/30 11:05:26;;;;;;;19.40;17.20;;;21.40;99.90;;;;;;5063306;28;20196;-78
2023/06/30 11:07:54;;;;;;;20.58;16.52;;;21.30;99.90;;;;;;5065032;28;20665;-78
2023/06/30 11:10:45;;;;;;;20.30;18.20;;;21.30;99.90;;;;;;5065722;28;20207;-79
2023/06/30 11:13:12;;;;;;;21.13;18.27;;;21.40;99.90;;;;;;5064025;28;20203;-79
2023/06/30 11:15:45;;;;;;;20.65;18.15;;;21.40;99.90;;;;;;5065344;28;20749;-79
2023/06/30 11:18:14;;;;;;;22.20;19.08;;;21.00;99.90;;;;;;5065380;28;20291;-79
2023/06/30 11:20:59;;;;;;;23.58;19.85;;;21.10;99.90;;;;;;5065491;28;20203;-79
2023/06/30 11:23:28;;;;;;;22.67;19.67;;;21.10;99.90;;;;;;5062862;28;20203;-79
2023/06/30 11:25:57;;;;;;;23.60;20.30;;;21.20;99.90;;;;;;5065274;28;20207;-77
2023/06/30 11:28:25;;;;;;;23.17;20.58;;;21.10;99.90;;;;;;5064934;28;20239;-78
2023/06/30 11:30:51;;;;;;;24.02;20.10;;;21.10;99.90;;;;;;5065217;28;20297;-78
2023/06/30 11:33:20;;;;;;;24.55;20.92;;;21.20;99.90;;;;;;5065439;28;20290;-79
2023/06/30 11:35:52;;;;;;;21.45;19.17;;;21.20;99.90;;;;;;5065284;28;20200;-78
2023/06/30 11:38:19;;;;;;;11.98;9.70;;;21.10;99.90;;;;;;5065667;28;20207;-78
2023/06/30 11:40:48;;;;;;;7.60;6.90;;;20.80;99.90;;;;;;5065565;28;20322;-79
2023/06/30 11:43:15;;;;;;;7.57;6.80;;;20.60;99.90;;;;;;5065239;28;20212;-78
2023/06/30 11:45:44;;;;;;;6.50;6.00;;;20.50;99.90;;;;;;5065375;28;20223;-78
2023/06/30 11:48:12;;;;;;;7.43;6.53;;;20.60;99.90;;;;;;5069243;28;20222;-78
2023/06/30 11:50:41;;;;;;;6.67;6.07;;;20.60;99.90;;;;;;5071252;28;20290;-78
2023/06/30 11:53:10;;;;;;;7.03;6.43;;;20.70;99.90;;;;;;5072015;28;20245;-77
2023/06/30 11:55:36;;;;;;;6.40;5.90;;;20.80;99.90;;;;;;5071749;28;20295;-79
2023/06/30 11:58:04;;;;;;;6.45;5.85;;;20.80;99.90;;;;;;5071849;28;20249;-79
2023/06/30 12:00:31;;;;;;;6.25;5.75;;;20.90;99.90;;;;;;5071287;28;20207;-79
2023/06/30 12:02:59;;;;;;;6.90;6.30;;;21.00;99.90;;;;;;5063502;28;20541;-80
2023/06/30 12:05:27;;;;;;;5.82;5.40;;;21.00;99.90;;;;;;5071382;28;20199;-80
2023/06/30 12:07:56;;;;;;;5.35;4.95;;;21.00;99.90;;;;;;5071414;28;20277;-80
2023/06/30 12:10:36;;;;;;;5.50;5.13;;;20.90;99.90;;;;;;5071819;28;20310;-81
2023/06/30 12:13:07;;;;;;;4.93;4.63;;;20.80;99.90;;;;;;5071364;28;20785;-80
2023/06/30 12:15:35;;;;;;;5.97;5.40;;;20.80;99.90;;;;;;5056010;28;20308;-80
2023/06/30 12:18:04;;;;;;;5.90;5.40;;;20.80;99.90;;;;;;5053718;28;20246;-81
2023/06/30 12:20:35;;;;;;;5.60;5.20;;;20.90;99.90;;;;;;5071767;28;21135;-78
2023/06/30 12:23:05;;;;;;;6.07;5.57;;;20.90;99.90;;;;;;5071402;28;20199;-78
2023/06/30 12:25:33;;;;;;;6.07;5.50;;;20.90;99.90;;;;;;5071320;28;20643;-79
2023/06/30 12:28:02;;;;;;;6.60;6.03;;;21.00;99.90;;;;;;5071880;28;20239;-80
2023/06/30 12:30:29;;;;;;;6.43;5.82;;;20.90;99.90;;;;;;5071251;28;20860;-80
2023/06/30 12:32:58;;;;;;;6.82;6.22;;;20.90;99.90;;;;;;5071339;28;20217;-79